Richmond Heights, Ohio
Current Conditions -  °F | °C
As of 4:45 PM on Tuesday 21 Oct 2014 (Local Time) from KCGF Reporting Station
Drizzle Drizzle  
Wind Chill: 50°   Ceiling: 1000
Heat Index: 50°   Visibility: 7mi
Dew Point: 46°   Wind: 15mph
Humidity: 87%   Direction: 350°N
Pressure: 29.99"   Gusts: 23mph
Location:  41.5545°N, 81.4746°W
Report Text: KCGF 212045Z 35013G20KT 7SM -DZ OVC010 10/08 A2999
Loading
Personal Weather Stations






























Interactive Weather Map
Tropical Storm Tracking
New forecast layout! Learn more

10-Day Weather Forecast

Advertisements
Track Severe Weather on mobile